Time;durP1;ratioP1;P1;durP2;ratioP2;P2;SDS_P1;SDS_P2;PMS_P1;PMS_P2;Temp;Humidity;BMP_temperature;BMP_pressure;BME280_temperature;BME280_humidity;BME280_pressure;Samples;Min_cycle;Max_cycle;Signal;HPM_P1;HPM_P2
2021/08/13 00:00:05;;;;;;;21.57;20.07;;;18.70;99.90;;;;;;5038384;28;20946;-66
2021/08/13 00:02:32;;;;;;;22.27;20.53;;;18.70;99.90;;;;;;5036748;28;20480;-67
2021/08/13 00:05:00;;;;;;;20.63;19.13;;;18.70;99.90;;;;;;5043564;28;20447;-66
2021/08/13 00:07:27;;;;;;;20.67;19.03;;;18.60;99.90;;;;;;5043017;28;20967;-65
2021/08/13 00:09:54;;;;;;;21.90;20.17;;;18.60;99.90;;;;;;5043347;28;20907;-66
2021/08/13 00:12:23;;;;;;;21.70;20.00;;;18.60;99.90;;;;;;5040802;28;20468;-67
2021/08/13 00:14:50;;;;;;;21.83;19.97;;;18.50;99.90;;;;;;5040176;28;20476;-66
2021/08/13 00:17:16;;;;;;;20.83;19.33;;;18.50;99.90;;;;;;5046512;28;20479;-66
2021/08/13 00:19:43;;;;;;;19.90;18.50;;;18.50;99.90;;;;;;5039988;28;20974;-67
2021/08/13 00:22:11;;;;;;;20.93;19.27;;;18.50;99.90;;;;;;5040183;28;20476;-66
2021/08/13 00:24:40;;;;;;;20.23;18.70;;;18.50;99.90;;;;;;5043299;28;20448;-66
2021/08/13 00:27:07;;;;;;;18.37;16.97;;;18.50;99.90;;;;;;5043523;28;20452;-65
2021/08/13 00:29:35;;;;;;;19.37;17.70;;;18.50;99.90;;;;;;5039767;28;20441;-66
2021/08/13 00:32:01;;;;;;;19.33;17.53;;;18.60;99.90;;;;;;5039266;28;20830;-66
2021/08/13 00:34:28;;;;;;;17.87;16.67;;;18.60;99.90;;;;;;5042682;28;20445;-66
2021/08/13 00:36:55;;;;;;;18.77;17.30;;;18.60;99.90;;;;;;5037309;28;20477;-65
2021/08/13 00:39:23;;;;;;;18.73;17.23;;;18.60;99.90;;;;;;5041859;28;20448;-68
2021/08/13 00:41:50;;;;;;;18.90;17.20;;;18.50;99.90;;;;;;5042831;28;20448;-66
2021/08/13 00:44:17;;;;;;;19.10;17.40;;;18.50;99.90;;;;;;5041028;28;20957;-66
2021/08/13 00:46:44;;;;;;;18.10;16.70;;;18.50;99.90;;;;;;5039560;28;20441;-65
2021/08/13 00:49:10;;;;;;;19.60;17.80;;;18.50;99.90;;;;;;5039914;28;20449;-66
2021/08/13 00:51:37;;;;;;;19.27;17.87;;;18.50;99.90;;;;;;5042268;28;20448;-66
2021/08/13 00:54:04;;;;;;;17.40;16.00;;;18.50;99.90;;;;;;5042882;28;20457;-66
2021/08/13 00:56:32;;;;;;;18.83;17.17;;;18.50;99.90;;;;;;5038116;28;20475;-66
2021/08/13 00:58:59;;;;;;;17.03;15.70;;;18.40;99.90;;;;;;5045360;28;20460;-65
2021/08/13 01:01:26;;;;;;;17.07;15.53;;;18.40;99.90;;;;;;5040956;28;20464;-66
2021/08/13 01:03:53;;;;;;;17.03;15.83;;;18.40;99.90;;;;;;5042462;28;20479;-66
2021/08/13 01:06:21;;;;;;;17.67;16.00;;;18.40;99.90;;;;;;5040394;28;20444;-66
2021/08/13 01:08:48;;;;;;;16.40;14.83;;;18.40;99.90;;;;;;5043004;28;20494;-66
2021/08/13 01:11:20;;;;;;;16.90;15.43;;;18.40;99.90;;;;;;5040698;28;20456;-67
2021/08/13 01:13:56;;;;;;;16.67;15.03;;;18.40;99.90;;;;;;5038740;28;20465;-66
2021/08/13 01:16:27;;;;;;;17.80;16.10;;;18.40;99.90;;;;;;5040067;28;20480;-63
2021/08/13 01:19:00;;;;;;;18.97;15.30;;;18.30;99.90;;;;;;5042173;28;20443;-65
2021/08/13 01:21:44;;;;;;;15.77;14.53;;;18.30;99.90;;;;;;5038624;28;20500;-64
2021/08/13 01:24:16;;;;;;;15.93;14.57;;;18.20;99.90;;;;;;5039223;28;20451;-64
2021/08/13 01:26:47;;;;;;;16.20;14.90;;;18.20;99.90;;;;;;5043188;28;20445;-64
2021/08/13 01:29:26;;;;;;;16.47;15.03;;;18.20;99.90;;;;;;5040708;28;20455;-63
2021/08/13 01:32:11;;;;;;;14.20;13.00;;;18.20;99.90;;;;;;5038802;28;20503;-64
2021/08/13 01:34:42;;;;;;;16.27;14.80;;;18.20;99.90;;;;;;5042060;28;20440;-63
2021/08/13 01:37:09;;;;;;;15.73;14.33;;;18.20;99.90;;;;;;5041458;28;20491;-63
2021/08/13 01:39:37;;;;;;;16.03;14.63;;;18.20;99.90;;;;;;5038414;28;20449;-63
2021/08/13 01:42:05;;;;;;;15.73;14.47;;;18.30;99.90;;;;;;5044962;28;20464;-64
2021/08/13 01:44:33;;;;;;;15.93;14.53;;;18.30;99.90;;;;;;5035787;28;20472;-64
2021/08/13 01:47:00;;;;;;;16.00;14.50;;;18.40;99.90;;;;;;5042388;28;20440;-64
2021/08/13 01:49:29;;;;;;;16.97;15.67;;;18.40;99.90;;;;;;5039382;28;20447;-64
2021/08/13 01:51:58;;;;;;;14.70;13.40;;;18.40;99.90;;;;;;5044211;28;20522;-64
2021/08/13 01:54:26;;;;;;;15.10;13.80;;;18.40;99.90;;;;;;5039281;28;20440;-63
2021/08/13 01:56:55;;;;;;;15.53;14.23;;;18.40;99.90;;;;;;5037584;28;20481;-64
2021/08/13 01:59:22;;;;;;;16.17;14.77;;;18.30;99.90;;;;;;5041065;28;20456;-64
2021/08/13 02:01:49;;;;;;;17.70;14.40;;;18.40;99.90;;;;;;5041880;28;20447;-63
2021/08/13 02:04:19;;;;;;;16.67;15.30;;;18.40;99.90;;;;;;5040218;28;20451;-66
2021/08/13 02:06:46;;;;;;;15.00;13.70;;;18.40;99.90;;;;;;5038850;28;20804;-63
2021/08/13 02:09:15;;;;;;;20.17;16.70;;;18.50;99.90;;;;;;5039309;28;20449;-64
2021/08/13 02:11:43;;;;;;;16.00;14.37;;;18.50;99.90;;;;;;5041350;28;20452;-65
2021/08/13 02:14:10;;;;;;;15.87;14.27;;;18.50;99.90;;;;;;5041210;28;20460;-65
2021/08/13 02:16:40;;;;;;;16.87;15.00;;;18.50;99.90;;;;;;5038321;28;20504;-64
2021/08/13 02:19:12;;;;;;;16.17;14.47;;;18.40;99.90;;;;;;5038822;28;20453;-63
2021/08/13 02:21:42;;;;;;;16.87;15.27;;;18.40;99.90;;;;;;5038360;28;20456;-64
2021/08/13 02:24:09;;;;;;;13.77;12.77;;;18.40;99.90;;;;;;5038234;28;20965;-64
2021/08/13 02:26:37;;;;;;;16.27;14.63;;;18.30;99.90;;;;;;5040444;28;20807;-64
2021/08/13 02:29:05;;;;;;;15.17;13.87;;;18.30;99.90;;;;;;5046934;28;20448;-64
2021/08/13 02:31:32;;;;;;;15.07;13.67;;;18.30;99.90;;;;;;5042608;28;20440;-65
2021/08/13 02:33:58;;;;;;;14.97;13.70;;;18.20;99.90;;;;;;5043156;28;20449;-64
2021/08/13 02:36:30;;;;;;;15.10;13.73;;;18.10;99.90;;;;;;5044477;28;20477;-63
2021/08/13 02:39:01;;;;;;;16.57;14.77;;;18.10;99.90;;;;;;5045449;28;21006;-64
2021/08/13 02:41:31;;;;;;;14.80;13.47;;;18.10;99.90;;;;;;5043654;28;20452;-66
2021/08/13 02:44:02;;;;;;;15.47;14.07;;;18.00;99.90;;;;;;5045378;28;20444;-64
2021/08/13 02:46:34;;;;;;;17.00;15.40;;;17.90;99.90;;;;;;5041993;28;20441;-65
2021/08/13 02:49:02;;;;;;;17.63;13.53;;;17.90;99.90;;;;;;5041898;28;20455;-64
2021/08/13 02:51:33;;;;;;;15.00;13.47;;;17.90;99.90;;;;;;5044742;28;20981;-64
2021/08/13 02:54:01;;;;;;;13.50;12.10;;;17.80;99.90;;;;;;5045004;28;20452;-64
2021/08/13 02:56:31;;;;;;;16.23;14.73;;;17.80;99.90;;;;;;5045210;28;20485;-63
2021/08/13 02:59:02;;;;;;;13.63;12.40;;;17.80;99.90;;;;;;5044824;28;20785;-64
2021/08/13 03:01:35;;;;;;;14.73;13.43;;;17.80;99.90;;;;;;5041439;28;20453;-63
2021/08/13 03:04:03;;;;;;;13.90;12.53;;;17.80;99.90;;;;;;5041463;28;20441;-63
2021/08/13 03:06:35;;;;;;;16.70;14.87;;;17.80;99.90;;;;;;5044836;28;20432;-64
2021/08/13 03:09:02;;;;;;;15.03;13.73;;;17.80;99.90;;;;;;5044327;28;20790;-64
2021/08/13 03:11:31;;;;;;;14.70;13.37;;;17.80;99.90;;;;;;5043961;28;20945;-63
2021/08/13 03:13:59;;;;;;;16.20;14.60;;;17.80;99.90;;;;;;5064967;28;20439;-63
2021/08/13 03:16:26;;;;;;;15.97;14.53;;;17.80;99.90;;;;;;5049036;28;20472;-64
2021/08/13 03:18:55;;;;;;;14.93;13.33;;;17.80;99.90;;;;;;5033508;28;20445;-63
2021/08/13 03:21:22;;;;;;;15.53;13.97;;;17.80;99.90;;;;;;5033213;28;20441;-63
2021/08/13 03:23:48;;;;;;;14.00;12.23;;;17.80;99.90;;;;;;5039140;28;20479;-64
2021/08/13 03:26:16;;;;;;;14.40;13.10;;;17.80;99.90;;;;;;5049908;28;20802;-63
2021/08/13 03:28:42;;;;;;;14.07;12.63;;;17.80;99.90;;;;;;5035739;28;20445;-64
2021/08/13 03:31:10;;;;;;;14.70;13.30;;;17.80;99.90;;;;;;5033098;28;20441;-63
2021/08/13 03:33:37;;;;;;;13.47;12.20;;;17.80;99.90;;;;;;5032925;28;20472;-63
2021/08/13 03:36:06;;;;;;;13.70;12.30;;;17.80;99.90;;;;;;5041649;28;20452;-63
2021/08/13 03:38:32;;;;;;;15.07;13.57;;;17.80;99.90;;;;;;5052705;28;20527;-64
2021/08/13 03:40:59;;;;;;;13.97;12.67;;;17.90;99.90;;;;;;5052342;28;20969;-61
2021/08/13 03:43:26;;;;;;;13.87;12.67;;;17.90;99.90;;;;;;5052759;28;20467;-64
2021/08/13 03:45:52;;;;;;;20.23;14.20;;;17.90;99.90;;;;;;5052169;28;20443;-65
2021/08/13 03:48:20;;;;;;;15.37;13.73;;;18.00;99.90;;;;;;5040841;28;20808;-64
2021/08/13 03:50:47;;;;;;;19.93;13.43;;;18.00;99.90;;;;;;5044332;28;20455;-63
2021/08/13 03:53:14;;;;;;;12.37;11.23;;;18.00;99.90;;;;;;5052292;28;20470;-63
2021/08/13 03:55:40;;;;;;;13.70;12.07;;;18.00;99.90;;;;;;5051135;28;20448;-64
2021/08/13 03:58:07;;;;;;;12.50;11.40;;;18.00;99.90;;;;;;5048717;28;20479;-63
2021/08/13 04:00:34;;;;;;;14.37;12.43;;;18.10;99.90;;;;;;5052578;28;20451;-63
2021/08/13 04:03:02;;;;;;;13.33;11.83;;;18.00;99.90;;;;;;5052009;28;20476;-63
2021/08/13 04:05:30;;;;;;;12.20;11.07;;;18.10;99.90;;;;;;5052422;28;20443;-62
2021/08/13 04:07:57;;;;;;;14.23;12.93;;;18.10;99.90;;;;;;5032646;28;20969;-63
2021/08/13 04:10:24;;;;;;;13.17;11.97;;;18.10;99.90;;;;;;5032424;28;20441;-63
2021/08/13 04:12:50;;;;;;;14.00;11.20;;;18.10;99.90;;;;;;5031972;28;20465;-63
2021/08/13 04:15:17;;;;;;;15.70;13.50;;;18.00;99.90;;;;;;5033467;28;20452;-60
2021/08/13 04:17:44;;;;;;;13.70;12.47;;;18.00;99.90;;;;;;5032189;28;20484;-65
2021/08/13 04:20:11;;;;;;;14.67;13.07;;;18.00;99.90;;;;;;5032379;28;20464;-64
2021/08/13 04:22:39;;;;;;;14.23;12.83;;;18.00;99.90;;;;;;5031758;28;20468;-64
2021/08/13 04:25:07;;;;;;;17.07;15.10;;;18.00;99.90;;;;;;5047173;28;20440;-64
2021/08/13 04:27:34;;;;;;;15.47;13.87;;;17.90;99.90;;;;;;5038619;28;20448;-64
2021/08/13 04:30:00;;;;;;;15.47;13.87;;;17.90;99.90;;;;;;5031896;28;20922;-63
2021/08/13 04:32:27;;;;;;;14.50;13.13;;;17.90;99.90;;;;;;5031788;28;20469;-63
2021/08/13 04:34:54;;;;;;;14.33;13.03;;;17.90;99.90;;;;;;5031781;28;20447;-63
2021/08/13 04:37:20;;;;;;;13.87;12.57;;;17.90;99.90;;;;;;5048297;28;20487;-64
2021/08/13 04:39:49;;;;;;;14.50;13.30;;;17.90;99.90;;;;;;5051792;28;20794;-63
2021/08/13 04:42:15;;;;;;;13.40;12.20;;;17.90;99.90;;;;;;5051391;28;20981;-63
2021/08/13 04:44:43;;;;;;;15.20;13.70;;;17.90;99.90;;;;;;5051771;28;20444;-61
2021/08/13 04:47:09;;;;;;;16.47;14.87;;;18.00;99.90;;;;;;5051646;28;20440;-63
2021/08/13 04:49:36;;;;;;;14.07;12.70;;;18.00;99.90;;;;;;5033181;28;20524;-63
2021/08/13 04:52:04;;;;;;;14.70;13.27;;;18.00;99.90;;;;;;5031396;28;21000;-62
2021/08/13 04:54:31;;;;;;;14.60;13.17;;;18.10;99.90;;;;;;5031694;28;21038;-63
2021/08/13 04:57:00;;;;;;;14.10;12.70;;;18.10;99.90;;;;;;5038310;28;20483;-63
2021/08/13 04:59:27;;;;;;;14.50;13.10;;;18.10;99.90;;;;;;5051628;28;20819;-60
2021/08/13 05:01:54;;;;;;;14.23;11.43;;;18.10;99.90;;;;;;5050919;28;20491;-65
2021/08/13 05:04:20;;;;;;;16.07;13.90;;;18.20;99.90;;;;;;5038257;28;20441;-64
2021/08/13 05:06:47;;;;;;;14.03;12.67;;;18.30;99.90;;;;;;5047638;28;20452;-64
2021/08/13 05:09:14;;;;;;;16.80;14.37;;;18.50;99.90;;;;;;5044180;28;20935;-64
2021/08/13 05:11:40;;;;;;;14.20;12.90;;;18.60;99.90;;;;;;5036678;28;20488;-64
2021/08/13 05:14:08;;;;;;;13.53;12.33;;;18.70;99.90;;;;;;5031320;28;20441;-64
2021/08/13 05:16:35;;;;;;;14.33;13.03;;;18.80;99.90;;;;;;5031322;28;20449;-64
2021/08/13 05:19:02;;;;;;;14.83;13.33;;;18.90;99.90;;;;;;5032127;28;20843;-62
2021/08/13 05:21:28;;;;;;;21.67;13.20;;;19.10;99.90;;;;;;5031109;28;20449;-64
2021/08/13 05:23:55;;;;;;;14.17;12.97;;;19.20;99.90;;;;;;5030975;28;20464;-64
2021/08/13 05:26:22;;;;;;;14.30;12.50;;;19.40;99.90;;;;;;5031040;28;20441;-64
2021/08/13 05:28:48;;;;;;;14.70;13.10;;;19.60;99.90;;;;;;5040539;28;20444;-64
2021/08/13 05:31:17;;;;;;;13.50;12.30;;;19.70;99.90;;;;;;5047376;28;20840;-64
2021/08/13 05:33:44;;;;;;;15.03;13.80;;;19.90;99.90;;;;;;5050512;28;20461;-64
2021/08/13 05:36:11;;;;;;;14.97;13.60;;;20.10;99.90;;;;;;5050913;28;20454;-64
2021/08/13 05:38:38;;;;;;;15.73;13.63;;;20.20;99.90;;;;;;5031816;28;21024;-64
2021/08/13 05:41:06;;;;;;;14.23;13.00;;;20.30;99.90;;;;;;5031033;28;20441;-65
2021/08/13 05:43:33;;;;;;;15.87;14.57;;;20.30;99.90;;;;;;5030398;28;20465;-65
2021/08/13 05:45:59;;;;;;;15.10;13.80;;;20.50;99.90;;;;;;5030671;28;20448;-64
2021/08/13 05:48:27;;;;;;;14.40;13.23;;;20.50;99.90;;;;;;5047260;28;20448;-65
2021/08/13 05:50:57;;;;;;;16.63;15.33;;;20.50;99.90;;;;;;5049811;28;20630;-65
2021/08/13 05:53:24;;;;;;;15.70;14.40;;;20.50;99.90;;;;;;5050549;28;21029;-65
2021/08/13 05:55:51;;;;;;;17.00;15.63;;;20.50;99.90;;;;;;5050724;28;20467;-64
2021/08/13 05:58:17;;;;;;;17.40;14.60;;;20.50;99.90;;;;;;5048693;28;20480;-65
2021/08/13 06:00:44;;;;;;;17.47;15.97;;;20.60;99.90;;;;;;5030863;28;20442;-64
2021/08/13 06:03:11;;;;;;;17.20;15.93;;;20.70;99.90;;;;;;5030544;28;20477;-65
2021/08/13 06:05:39;;;;;;;17.37;15.77;;;20.80;99.90;;;;;;5031042;28;20480;-64
2021/08/13 06:08:05;;;;;;;16.93;15.73;;;20.90;99.90;;;;;;5032096;28;20451;-64
2021/08/13 06:10:32;;;;;;;18.23;16.80;;;21.00;99.90;;;;;;5036682;28;20448;-64
2021/08/13 06:12:59;;;;;;;17.10;15.50;;;21.20;99.90;;;;;;5047496;28;20471;-64
2021/08/13 06:15:25;;;;;;;17.60;16.10;;;21.30;99.90;;;;;;5054491;28;20952;-64
2021/08/13 06:17:52;;;;;;;19.60;18.30;;;21.30;99.90;;;;;;5054292;28;20480;-64
2021/08/13 06:20:21;;;;;;;20.70;19.17;;;21.40;99.90;;;;;;5048626;28;20452;-65
2021/08/13 06:22:49;;;;;;;19.33;18.03;;;21.50;99.90;;;;;;5034195;28;20469;-65
2021/08/13 06:25:16;;;;;;;21.17;19.57;;;21.50;99.90;;;;;;5034414;28;20453;-64
2021/08/13 06:27:43;;;;;;;22.13;20.63;;;21.60;99.90;;;;;;5047365;28;20440;-65
2021/08/13 06:30:12;;;;;;;20.73;19.33;;;21.80;99.90;;;;;;5044984;28;20822;-64
2021/08/13 06:32:39;;;;;;;20.63;19.23;;;22.00;99.90;;;;;;5033650;28;20469;-64
2021/08/13 06:35:06;;;;;;;22.27;20.40;;;22.10;99.90;;;;;;5034316;28;20452;-65
2021/08/13 06:37:34;;;;;;;22.00;20.70;;;22.30;99.90;;;;;;5034058;28;20476;-64
2021/08/13 06:40:02;;;;;;;22.37;20.87;;;22.50;99.90;;;;;;5041281;28;20444;-65
2021/08/13 06:42:28;;;;;;;24.70;22.87;;;22.70;99.90;;;;;;5053820;28;20479;-65
2021/08/13 06:44:55;;;;;;;21.87;20.43;;;22.60;99.90;;;;;;5050701;28;20444;-65
2021/08/13 06:47:23;;;;;;;26.50;24.20;;;22.70;99.90;;;;;;5034245;28;21053;-63
2021/08/13 06:49:50;;;;;;;25.10;23.33;;;22.80;99.90;;;;;;5034541;28;20456;-64
2021/08/13 06:52:17;;;;;;;26.27;24.13;;;22.90;99.90;;;;;;5033576;28;20464;-64
2021/08/13 06:54:43;;;;;;;25.73;23.90;;;22.90;99.90;;;;;;5033723;28;20448;-64
2021/08/13 06:57:11;;;;;;;24.70;23.00;;;22.90;99.90;;;;;;5033996;28;20796;-64
2021/08/13 06:59:38;;;;;;;26.07;24.10;;;23.00;99.90;;;;;;5053056;28;20480;-65
2021/08/13 07:02:11;;;;;;;26.57;24.53;;;23.00;99.90;;;;;;5050933;28;20567;-64
2021/08/13 07:04:37;;;;;;;28.03;26.03;;;22.90;99.90;;;;;;5051645;28;20817;-64
2021/08/13 07:07:04;;;;;;;27.77;25.77;;;22.80;99.90;;;;;;5051827;28;20455;-63
2021/08/13 07:09:31;;;;;;;28.90;26.73;;;22.80;99.90;;;;;;5053522;28;20467;-64
2021/08/13 07:11:58;;;;;;;28.43;26.23;;;22.70;99.90;;;;;;5053021;28;20468;-65
2021/08/13 07:14:26;;;;;;;29.13;26.93;;;22.90;99.90;;;;;;5048735;28;20444;-65
2021/08/13 07:16:52;;;;;;;30.93;28.37;;;22.90;99.90;;;;;;5047833;28;20444;-65
2021/08/13 07:19:19;;;;;;;30.20;27.70;;;23.00;99.90;;;;;;5052048;28;20479;-65
2021/08/13 07:21:46;;;;;;;31.83;29.33;;;23.00;99.90;;;;;;5053067;28;20449;-66
2021/08/13 07:24:15;;;;;;;31.90;29.70;;;22.90;99.90;;;;;;5040471;28;20449;-64
2021/08/13 07:26:41;;;;;;;33.27;30.67;;;22.90;99.90;;;;;;5035525;28;20903;-64
2021/08/13 07:29:08;;;;;;;31.70;29.07;;;22.90;99.90;;;;;;5047542;28;20447;-63
2021/08/13 07:31:36;;;;;;;32.70;30.30;;;23.00;99.90;;;;;;5052338;28;20527;-64
2021/08/13 07:34:03;;;;;;;34.40;31.40;;;23.00;99.90;;;;;;5052839;28;20444;-65
2021/08/13 07:36:29;;;;;;;34.30;31.07;;;23.00;99.90;;;;;;5040610;28;20445;-64
2021/08/13 07:38:56;;;;;;;32.80;30.13;;;23.00;99.90;;;;;;5032862;28;20493;-65
2021/08/13 07:41:23;;;;;;;35.90;32.63;;;23.10;99.90;;;;;;5032850;28;20449;-65
2021/08/13 07:43:50;;;;;;;32.70;30.30;;;23.40;99.90;;;;;;5033975;28;20460;-65
2021/08/13 07:46:16;;;;;;;38.80;35.10;;;23.70;99.90;;;;;;5033061;28;20456;-65
2021/08/13 07:48:45;;;;;;;36.67;33.77;;;23.90;99.90;;;;;;5043046;28;20994;-65
2021/08/13 07:51:11;;;;;;;35.00;32.27;;;23.90;99.90;;;;;;5046521;28;20795;-65
2021/08/13 07:53:38;;;;;;;35.67;32.47;;;24.00;99.90;;;;;;5032717;28;20473;-65
2021/08/13 07:56:06;;;;;;;38.97;36.00;;;24.10;99.90;;;;;;5032688;28;20814;-64
2021/08/13 07:58:33;;;;;;;39.43;35.93;;;24.00;99.90;;;;;;5032588;28;20500;-64
2021/08/13 08:00:59;;;;;;;38.63;35.60;;;24.10;99.90;;;;;;5044698;28;20451;-64
2021/08/13 08:03:26;;;;;;;39.93;36.93;;;24.00;99.90;;;;;;5052423;28;20482;-65
2021/08/13 08:05:54;;;;;;;40.23;37.03;;;24.10;99.90;;;;;;5052432;28;20448;-64
2021/08/13 08:08:21;;;;;;;39.63;36.40;;;24.30;99.90;;;;;;5051752;28;20486;-64
2021/08/13 08:10:48;;;;;;;40.93;37.40;;;24.30;99.90;;;;;;5047744;28;20447;-64
2021/08/13 08:13:15;;;;;;;47.40;43.50;;;24.40;99.90;;;;;;5032033;28;20823;-65
2021/08/13 08:15:43;;;;;;;45.47;41.67;;;24.70;99.90;;;;;;5032442;28;20444;-64
2021/08/13 08:18:10;;;;;;;44.63;41.07;;;24.80;99.90;;;;;;5032318;28;20477;-64
2021/08/13 08:20:38;;;;;;;44.53;40.60;;;25.00;99.90;;;;;;5051252;28;20500;-64
2021/08/13 08:23:07;;;;;;;46.00;42.00;;;25.00;99.90;;;;;;5052024;28;20522;-65
2021/08/13 08:25:34;;;;;;;45.63;41.70;;;25.00;99.90;;;;;;5043568;28;20453;-64
2021/08/13 08:28:01;;;;;;;45.87;41.97;;;24.60;99.90;;;;;;5032302;28;20449;-64
2021/08/13 08:30:28;;;;;;;47.93;42.90;;;24.50;99.90;;;;;;5034528;28;20448;-64
2021/08/13 08:32:54;;;;;;;48.13;44.00;;;24.50;99.90;;;;;;5051615;28;20463;-63
2021/08/13 08:35:22;;;;;;;46.33;42.63;;;24.50;99.90;;;;;;5046426;28;20455;-64
2021/08/13 08:37:53;;;;;;;46.57;42.13;;;24.30;99.90;;;;;;5051901;28;20452;-64
2021/08/13 08:40:25;;;;;;;43.47;39.87;;;24.30;99.90;;;;;;5051890;28;20444;-63
2021/08/13 08:42:54;;;;;;;46.47;42.50;;;24.20;99.90;;;;;;5043794;28;20468;-63
2021/08/13 08:45:20;;;;;;;45.00;40.80;;;24.20;99.90;;;;;;5042886;28;20527;-64
2021/08/13 08:47:48;;;;;;;44.47;40.63;;;24.20;99.90;;;;;;5034176;28;20451;-64
2021/08/13 08:50:15;;;;;;;47.17;43.33;;;24.20;99.90;;;;;;5051833;28;20819;-64
2021/08/13 08:52:44;;;;;;;44.13;40.50;;;24.20;99.90;;;;;;5051463;28;20976;-64
2021/08/13 08:55:12;;;;;;;45.87;41.97;;;24.20;99.90;;;;;;5032972;28;20441;-64
2021/08/13 08:57:41;;;;;;;42.47;39.13;;;24.20;99.90;;;;;;5031641;28;20789;-64
2021/08/13 09:00:09;;;;;;;43.27;39.40;;;24.50;99.90;;;;;;5031652;28;20866;-64
2021/08/13 09:02:36;;;;;;;42.50;38.40;;;24.60;99.90;;;;;;5031356;28;20853;-64
2021/08/13 09:05:04;;;;;;;40.07;36.87;;;24.90;99.90;;;;;;5038906;28;20445;-64
2021/08/13 09:07:30;;;;;;;38.30;35.10;;;25.30;99.90;;;;;;5051550;28;20972;-65
2021/08/13 09:10:00;;;;;;;38.63;35.33;;;25.40;99.90;;;;;;5051424;28;20440;-64
2021/08/13 09:12:27;;;;;;;36.37;33.70;;;25.40;99.90;;;;;;5041798;28;21016;-63
2021/08/13 09:14:55;;;;;;;39.30;36.20;;;25.50;99.90;;;;;;5035709;28;20964;-64
2021/08/13 09:17:28;;;;;;;37.07;34.20;;;25.60;99.90;;;;;;5048739;28;20440;-64
2021/08/13 09:19:55;;;;;;;37.43;34.67;;;25.60;99.90;;;;;;5071288;28;20475;-64
2021/08/13 09:22:22;;;;;;;39.47;35.60;;;25.40;99.90;;;;;;5071046;28;20520;-64
2021/08/13 09:24:51;;;;;;;33.90;31.50;;;25.40;99.90;;;;;;5071302;28;20446;-64
2021/08/13 09:27:22;;;;;;;35.27;32.87;;;25.60;99.90;;;;;;5046124;28;20441;-64
2021/08/13 09:30:12;;;;;;;35.43;32.60;;;25.80;99.90;;;;;;5047754;28;20474;-64
2021/08/13 09:32:40;;;;;;;35.27;32.73;;;26.10;99.90;;;;;;5070910;28;20482;-65
2021/08/13 09:35:08;;;;;;;33.70;31.30;;;26.20;99.90;;;;;;5052564;28;20893;-64
2021/08/13 09:37:35;;;;;;;33.60;31.00;;;26.60;99.90;;;;;;5051011;28;20448;-64
2021/08/13 09:40:02;;;;;;;31.70;29.63;;;26.90;99.90;;;;;;5043726;28;20481;-64
2021/08/13 09:42:37;;;;;;;33.20;30.60;;;27.10;99.90;;;;;;5031053;28;20472;-64
2021/08/13 09:45:06;;;;;;;31.20;29.20;;;27.20;99.90;;;;;;5035481;28;20677;-64
2021/08/13 09:47:45;;;;;;;34.57;31.97;;;27.40;99.90;;;;;;5038958;28;20481;-64
2021/08/13 09:50:14;;;;;;;31.30;29.17;;;27.20;99.90;;;;;;5069654;28;20936;-64
2021/08/13 09:52:41;;;;;;;31.80;29.50;;;27.50;99.90;;;;;;5070118;28;20475;-65
2021/08/13 09:55:12;;;;;;;32.47;30.20;;;27.50;99.90;;;;;;5054954;28;20861;-64
2021/08/13 09:57:43;;;;;;;31.83;29.83;;;27.30;99.90;;;;;;5054857;28;20868;-65
2021/08/13 10:00:12;;;;;;;28.10;26.50;;;27.30;99.90;;;;;;5054781;28;20845;-64
2021/08/13 10:02:40;;;;;;;25.37;24.10;;;27.20;99.50;;;;;;5054246;28;20480;-64
2021/08/13 10:05:22;;;;;;;26.20;24.70;;;27.00;98.20;;;;;;5061151;28;20630;-64
2021/08/13 10:07:50;;;;;;;26.70;25.10;;;27.40;97.30;;;;;;5074842;28;20541;-64
2021/08/13 10:10:17;;;;;;;25.60;24.20;;;27.30;95.70;;;;;;5074434;28;20447;-64
2021/08/13 10:12:45;;;;;;;25.87;24.47;;;27.30;96.40;;;;;;5074414;28;20805;-64
2021/08/13 10:15:27;;;;;;;24.53;23.30;;;27.30;95.40;;;;;;5074576;28;20458;-64
2021/08/13 10:17:54;;;;;;;25.27;23.90;;;27.60;95.50;;;;;;5074613;28;20438;-64
2021/08/13 10:20:22;;;;;;;25.30;23.80;;;27.80;95.10;;;;;;5074552;28;20874;-65
2021/08/13 10:22:49;;;;;;;21.87;20.67;;;27.80;93.80;;;;;;5074438;28;20462;-64
2021/08/13 10:25:17;;;;;;;23.70;22.20;;;27.50;91.60;;;;;;5067234;28;20462;-64
2021/08/13 10:27:44;;;;;;;22.93;21.83;;;27.50;94.40;;;;;;5040530;28;20449;-65
2021/08/13 10:30:12;;;;;;;23.57;22.17;;;27.90;94.00;;;;;;5034566;28;20433;-64
2021/08/13 10:32:39;;;;;;;20.70;19.80;;;28.20;93.30;;;;;;5034152;28;20472;-64
2021/08/13 10:35:07;;;;;;;21.90;20.90;;;28.30;90.80;;;;;;5034561;28;20437;-64
2021/08/13 10:37:36;;;;;;;20.53;19.53;;;28.10;89.90;;;;;;5044458;28;20444;-64
2021/08/13 10:40:04;;;;;;;20.80;19.90;;;28.10;90.20;;;;;;5054233;28;20841;-64
2021/08/13 10:42:34;;;;;;;22.63;21.20;;;28.50;90.00;;;;;;5053960;28;20467;-64
2021/08/13 10:45:05;;;;;;;20.10;19.30;;;28.30;84.00;;;;;;5054236;28;20444;-64
2021/08/13 10:47:35;;;;;;;21.50;20.43;;;28.30;84.80;;;;;;5054103;28;20452;-64
2021/08/13 10:50:03;;;;;;;21.30;20.30;;;28.30;86.40;;;;;;5039686;28;20441;-64
2021/08/13 10:52:36;;;;;;;22.57;21.23;;;28.00;86.60;;;;;;5033685;28;20830;-64
2021/08/13 10:55:04;;;;;;;21.50;20.60;;;27.90;89.50;;;;;;5033982;28;20449;-64
2021/08/13 10:57:52;;;;;;;21.93;20.77;;;28.30;90.30;;;;;;5045486;28;20471;-64
2021/08/13 11:00:20;;;;;;;20.73;19.70;;;28.70;89.90;;;;;;5050498;28;20491;-64
2021/08/13 11:03:18;;;;;;;21.43;20.43;;;29.00;86.70;;;;;;5054059;28;20486;-64
2021/08/13 11:05:52;;;;;;;19.23;18.53;;;29.10;81.60;;;;;;5052374;28;20786;-64
2021/08/13 11:08:20;;;;;;;18.10;17.47;;;29.00;75.40;;;;;;5039697;28;20445;-64
2021/08/13 11:10:57;;;;;;;19.20;18.40;;;29.30;72.90;;;;;;5047135;28;20448;-64
2021/08/13 11:13:25;;;;;;;20.63;19.73;;;29.30;73.60;;;;;;5042177;28;20471;-64
2021/08/13 11:15:54;;;;;;;19.63;18.90;;;29.30;73.80;;;;;;5035791;28;20449;-65
2021/08/13 11:18:32;;;;;;;20.50;19.50;;;29.20;73.40;;;;;;5038021;28;20460;-64
2021/08/13 11:20:59;;;;;;;20.17;19.37;;;28.80;72.80;;;;;;5033970;28;20480;-65
2021/08/13 11:23:28;;;;;;;19.20;18.50;;;28.50;75.00;;;;;;5033266;28;20492;-64
2021/08/13 11:25:55;;;;;;;20.50;19.60;;;28.70;76.60;;;;;;5034328;28;20824;-64
2021/08/13 11:28:23;;;;;;;21.43;20.20;;;28.90;72.70;;;;;;5050724;28;20448;-64
2021/08/13 11:30:52;;;;;;;20.63;19.63;;;29.40;74.00;;;;;;5053355;28;20860;-64
2021/08/13 11:33:42;;;;;;;20.37;19.67;;;30.60;69.80;;;;;;5052904;28;20988;-64
2021/08/13 11:36:09;;;;;;;20.30;19.50;;;31.60;66.40;;;;;;5047313;28;20445;-64
2021/08/13 11:39:00;;;;;;;21.10;20.30;;;33.00;61.90;;;;;;5033011;28;20448;-65
2021/08/13 11:41:28;;;;;;;19.60;18.90;;;33.00;57.10;;;;;;5041138;28;20464;-63
2021/08/13 11:43:59;;;;;;;20.90;20.10;;;33.10;55.90;;;;;;5041500;28;20471;-65
2021/08/13 11:46:27;;;;;;;20.17;19.37;;;32.90;54.60;;;;;;5034094;28;20942;-65
2021/08/13 11:48:57;;;;;;;20.90;20.10;;;33.10;54.30;;;;;;5035005;28;20444;-65
2021/08/13 11:51:25;;;;;;;21.07;20.20;;;35.20;52.70;;;;;;5048789;28;20470;-65
2021/08/13 11:53:52;;;;;;;21.23;20.33;;;35.40;49.50;;;;;;5052575;28;20263;-65
2021/08/13 11:56:28;;;;;;;21.20;20.40;;;36.70;47.50;;;;;;5045037;28;20194;-64
2021/08/13 11:58:59;;;;;;;20.17;19.38;;;37.80;43.90;;;;;;5052640;28;20680;-65
2021/08/13 12:01:26;;;;;;;21.15;20.13;;;37.10;43.60;;;;;;5052389;28;20602;-65
2021/08/13 12:03:53;;;;;;;21.10;20.30;;;35.70;42.70;;;;;;5044009;28;20781;-64
2021/08/13 12:06:20;;;;;;;20.95;20.25;;;35.30;46.10;;;;;;5047563;28;20558;-65
2021/08/13 12:08:48;;;;;;;21.35;20.65;;;39.00;42.60;;;;;;5052538;28;20551;-66
2021/08/13 12:11:21;;;;;;;21.23;20.42;;;41.40;37.80;;;;;;5052254;28;20197;-65
2021/08/13 12:13:49;;;;;;;22.02;21.13;;;41.20;35.70;;;;;;5047666;28;20221;-65
2021/08/13 12:16:18;;;;;;;22.08;21.10;;;41.50;35.30;;;;;;5032317;28;20202;-65
2021/08/13 12:18:45;;;;;;;22.08;21.10;;;43.10;34.20;;;;;;5032328;28;20284;-64
2021/08/13 12:21:13;;;;;;;21.40;20.60;;;45.20;31.50;;;;;;5032108;28;20695;-63
2021/08/13 12:23:40;;;;;;;20.45;19.73;;;44.70;29.60;;;;;;5048706;28;20227;-62
2021/08/13 12:26:06;;;;;;;19.20;18.60;;;44.60;29.00;;;;;;5050231;28;20202;-64
2021/08/13 12:28:36;;;;;;;19.55;18.67;;;43.40;29.10;;;;;;5032859;28;20228;-65
2021/08/13 12:31:10;;;;;;;20.70;20.00;;;42.80;29.80;;;;;;5031823;28;20201;-65
2021/08/13 12:33:36;;;;;;;20.95;20.25;;;44.70;28.50;;;;;;5047647;28;20217;-64